createdAt,value
2023-06-29T00:03:35.287Z,99.90
2023-06-29T00:08:38.124Z,99.90
2023-06-29T00:13:40.791Z,99.90
2023-06-29T00:18:43.385Z,99.90
2023-06-29T00:23:47.201Z,99.90
2023-06-29T00:28:49.855Z,99.90
2023-06-29T00:33:52.700Z,99.90
2023-06-29T00:38:55.578Z,99.90
2023-06-29T00:43:59.032Z,99.90
2023-06-29T00:49:02.021Z,99.90
2023-06-29T00:54:05.008Z,99.90
2023-06-29T00:59:07.669Z,99.90
2023-06-29T01:04:11.136Z,99.90
2023-06-29T01:09:16.035Z,99.90
2023-06-29T01:14:20.870Z,99.90
2023-06-29T01:19:30.945Z,99.90
2023-06-29T01:24:52.310Z,99.90
2023-06-29T01:29:56.458Z,99.90
2023-06-29T01:34:59.653Z,99.90
2023-06-29T01:40:07.665Z,99.90
2023-06-29T01:45:12.492Z,99.90
2023-06-29T01:50:17.582Z,99.90
2023-06-29T01:55:20.976Z,99.90
2023-06-29T02:00:23.931Z,99.90
2023-06-29T02:05:28.193Z,99.90
2023-06-29T02:10:30.876Z,99.90
2023-06-29T02:15:33.525Z,99.90
2023-06-29T02:20:41.883Z,99.90
2023-06-29T02:25:44.840Z,99.90
2023-06-29T02:30:47.672Z,99.90
2023-06-29T02:35:50.359Z,99.90
2023-06-29T02:40:53.137Z,99.90
2023-06-29T02:45:56.434Z,99.90
2023-06-29T02:51:01.671Z,99.90
2023-06-29T02:56:04.869Z,99.90
2023-06-29T03:01:07.849Z,99.90
2023-06-29T03:06:10.527Z,99.90
2023-06-29T03:11:13.178Z,99.90
2023-06-29T03:16:15.812Z,99.90
2023-06-29T03:21:20.808Z,99.90
2023-06-29T03:26:23.757Z,99.90
2023-06-29T03:31:26.619Z,99.90
2023-06-29T03:36:29.276Z,99.90
2023-06-29T03:41:32.502Z,99.90
2023-06-29T03:46:35.100Z,99.90
2023-06-29T03:51:37.747Z,99.90
2023-06-29T03:56:40.496Z,99.90
2023-06-29T04:01:43.173Z,99.90
2023-06-29T04:06:46.983Z,99.90
2023-06-29T04:11:49.589Z,99.90
2023-06-29T04:16:52.200Z,99.90
2023-06-29T04:21:54.974Z,99.90
2023-06-29T04:26:57.504Z,99.90
2023-06-29T04:32:00.174Z,99.90
2023-06-29T04:37:03.412Z,99.90
2023-06-29T04:42:11.767Z,99.90
2023-06-29T04:47:14.741Z,99.90
2023-06-29T04:52:19.901Z,99.90
2023-06-29T04:57:22.702Z,99.90
2023-06-29T05:02:25.791Z,99.90
2023-06-29T05:07:29.110Z,99.90
2023-06-29T05:12:31.704Z,99.90
2023-06-29T05:17:35.618Z,99.90
2023-06-29T05:22:38.327Z,99.90
2023-06-29T05:27:41.062Z,99.90
2023-06-29T05:32:43.858Z,99.90
2023-06-29T05:37:48.226Z,99.90
2023-06-29T05:42:50.930Z,99.90
2023-06-29T05:47:56.034Z,99.90
2023-06-29T05:52:58.710Z,99.90
2023-06-29T05:58:01.350Z,99.90
2023-06-29T06:03:04.502Z,99.90
2023-06-29T06:08:07.548Z,99.90
2023-06-29T06:13:10.608Z,99.90
2023-06-29T06:18:13.368Z,99.90
2023-06-29T06:23:16.091Z,99.90
2023-06-29T06:28:18.830Z,99.90
2023-06-29T06:33:21.577Z,99.90
2023-06-29T06:38:25.827Z,99.90
2023-06-29T06:43:35.050Z,99.90
2023-06-29T06:48:37.680Z,99.90
2023-06-29T06:53:40.892Z,99.90
2023-06-29T06:58:43.639Z,99.90
2023-06-29T07:03:46.218Z,99.90
2023-06-29T07:08:49.261Z,99.90
2023-06-29T07:13:51.825Z,99.90
2023-06-29T07:21:17.166Z,99.90
2023-06-29T07:24:28.422Z,99.90
2023-06-29T07:29:31.710Z,99.90
2023-06-29T07:34:34.820Z,99.90
2023-06-29T07:39:37.887Z,99.90
2023-06-29T07:44:40.433Z,99.90
2023-06-29T07:49:43.662Z,99.90
2023-06-29T07:54:46.539Z,99.90
2023-06-29T07:59:49.541Z,99.90
2023-06-29T08:09:57.981Z,99.90
2023-06-29T08:15:00.589Z,99.90
2023-06-29T08:20:06.822Z,99.90
2023-06-29T08:25:09.915Z,99.90
2023-06-29T08:30:13.402Z,99.90
2023-06-29T08:35:16.625Z,99.90
2023-06-29T08:40:23.618Z,99.90
2023-06-29T08:45:26.418Z,99.90
2023-06-29T08:50:31.365Z,99.90
2023-06-29T08:55:34.576Z,99.90
2023-06-29T09:00:38.801Z,99.90
2023-06-29T09:05:46.808Z,99.90
2023-06-29T09:10:49.489Z,99.90
2023-06-29T09:15:55.383Z,99.90
2023-06-29T09:20:58.236Z,99.90
2023-06-29T09:26:05.811Z,99.90
2023-06-29T09:31:10.055Z,99.90
2023-06-29T09:36:13.593Z,99.90
2023-06-29T09:41:16.227Z,99.90
2023-06-29T09:46:19.441Z,99.90
2023-06-29T09:51:23.295Z,99.90
2023-06-29T09:56:28.006Z,98.40
2023-06-29T10:01:31.500Z,98.10
2023-06-29T10:06:45.012Z,98.20
2023-06-29T10:11:54.732Z,96.80
2023-06-29T10:16:58.010Z,95.60
2023-06-29T10:22:07.697Z,95.00
2023-06-29T10:27:13.032Z,94.80
2023-06-29T10:32:39.573Z,96.10
2023-06-29T10:37:49.286Z,93.70
2023-06-29T10:42:54.188Z,91.60
2023-06-29T11:16:03.649Z,90.60
2023-06-29T11:21:06.890Z,90.00
2023-06-29T11:26:09.723Z,84.50
2023-06-29T11:31:12.887Z,88.20
2023-06-29T11:36:16.185Z,90.10
2023-06-29T11:41:18.793Z,91.70
2023-06-29T11:46:21.989Z,88.70
2023-06-29T11:51:30.144Z,89.30
2023-06-29T11:56:42.070Z,90.50
2023-06-29T12:01:45.776Z,91.60
2023-06-29T12:06:52.685Z,90.80
2023-06-29T12:12:03.700Z,88.80
2023-06-29T12:22:25.406Z,90.80
2023-06-29T12:27:28.290Z,89.50
2023-06-29T12:32:30.944Z,83.20
2023-06-29T12:37:33.757Z,82.50
2023-06-29T12:42:38.766Z,81.80
2023-06-29T12:47:43.126Z,80.60
2023-06-29T12:52:49.430Z,78.90
2023-06-29T12:57:51.948Z,82.00
2023-06-29T13:02:55.120Z,78.30
2023-06-29T13:07:58.598Z,76.30
2023-06-29T13:13:05.044Z,78.80
2023-06-29T13:18:07.683Z,79.90
2023-06-29T13:23:10.407Z,83.90
2023-06-29T13:28:13.418Z,82.20
2023-06-29T13:33:16.433Z,84.70
2023-06-29T13:38:19.559Z,85.00
2023-06-29T13:43:22.173Z,86.10
2023-06-29T13:48:24.962Z,86.60
2023-06-29T13:53:27.541Z,82.60
2023-06-29T13:58:30.282Z,80.30
2023-06-29T14:03:33.047Z,82.10
2023-06-29T14:08:35.789Z,83.70
2023-06-29T14:13:38.377Z,84.70
2023-06-29T14:18:41.428Z,83.60
2023-06-29T14:23:44.417Z,82.60
2023-06-29T14:28:47.663Z,83.30
2023-06-29T14:33:52.659Z,77.60
2023-06-29T14:38:59.989Z,78.50
2023-06-29T14:44:05.258Z,80.60
2023-06-29T14:49:07.964Z,80.80
2023-06-29T14:54:10.721Z,80.60
2023-06-29T14:59:13.453Z,81.00
2023-06-29T15:04:16.366Z,76.70
2023-06-29T15:09:19.144Z,78.10
2023-06-29T15:14:22.293Z,76.60
2023-06-29T15:19:25.094Z,75.40
2023-06-29T15:24:28.290Z,76.80
2023-06-29T15:29:31.396Z,77.70
2023-06-29T15:34:33.979Z,74.60
2023-06-29T15:39:36.847Z,75.10
2023-06-29T15:44:39.758Z,78.60
2023-06-29T15:49:43.473Z,78.70
2023-06-29T15:54:46.206Z,76.80
2023-06-29T15:59:48.772Z,77.00
2023-06-29T16:04:51.493Z,77.00
2023-06-29T16:09:54.280Z,75.50
2023-06-29T16:15:00.205Z,77.70
2023-06-29T16:20:04.234Z,78.70
2023-06-29T16:25:08.168Z,78.90
2023-06-29T16:30:11.110Z,76.40
2023-06-29T16:35:17.442Z,76.00
2023-06-29T16:40:20.368Z,76.10
2023-06-29T16:45:23.669Z,78.90
2023-06-29T16:50:26.248Z,79.50
2023-06-29T16:55:28.842Z,77.70
2023-06-29T17:00:31.606Z,75.70
2023-06-29T17:05:34.398Z,71.10
2023-06-29T17:10:36.949Z,70.80
2023-06-29T17:15:39.526Z,67.60
2023-06-29T17:20:44.542Z,69.80
2023-06-29T17:25:51.821Z,68.80
2023-06-29T17:30:55.949Z,69.00
2023-06-29T17:35:58.666Z,71.20
2023-06-29T17:41:04.107Z,71.40
2023-06-29T17:46:06.962Z,70.30
2023-06-29T17:51:17.606Z,72.30
2023-06-29T17:56:20.340Z,72.10
2023-06-29T18:01:22.967Z,71.80
2023-06-29T18:06:25.783Z,74.10
2023-06-29T18:11:28.836Z,74.20
2023-06-29T18:16:32.034Z,74.90
2023-06-29T18:21:37.048Z,77.30
2023-06-29T18:26:39.798Z,76.50
2023-06-29T18:31:42.705Z,79.00
2023-06-29T18:36:45.519Z,80.30
2023-06-29T18:41:48.502Z,82.40
2023-06-29T18:47:13.847Z,86.90
2023-06-29T18:52:16.621Z,90.00
2023-06-29T18:57:19.346Z,92.80
2023-06-29T19:02:22.907Z,94.90
2023-06-29T19:07:25.487Z,97.70
2023-06-29T19:12:28.389Z,99.90
2023-06-29T19:17:31.344Z,99.90
2023-06-29T19:22:34.438Z,99.90
2023-06-29T19:27:37.589Z,99.90
2023-06-29T19:32:43.162Z,99.90
2023-06-29T19:37:45.825Z,99.90
2023-06-29T19:42:48.868Z,99.90
2023-06-29T19:47:51.462Z,99.90
2023-06-29T19:52:54.294Z,99.90
2023-06-29T19:57:56.940Z,99.90
2023-06-29T20:02:59.723Z,99.90
2023-06-29T20:08:02.893Z,99.90
2023-06-29T20:13:05.789Z,99.90
2023-06-29T20:18:09.551Z,99.90
2023-06-29T20:23:12.350Z,99.90
2023-06-29T20:28:15.187Z,99.90
2023-06-29T20:33:17.846Z,99.90
2023-06-29T20:38:20.481Z,99.90
2023-06-29T20:43:23.168Z,99.90
2023-06-29T20:48:25.793Z,99.90
2023-06-29T20:53:28.582Z,99.90
2023-06-29T20:58:32.398Z,99.90
2023-06-29T21:03:35.322Z,99.90
2023-06-29T21:08:38.132Z,99.90
2023-06-29T21:18:44.522Z,99.90
2023-06-29T21:23:47.688Z,99.90
2023-06-29T21:28:55.197Z,99.90
2023-06-29T21:33:58.141Z,99.90
2023-06-29T21:39:02.448Z,99.90
2023-06-29T21:44:06.495Z,99.90
2023-06-29T21:49:09.043Z,99.90
2023-06-29T21:54:14.905Z,99.90
2023-06-29T21:59:17.973Z,99.90
2023-06-29T22:04:20.690Z,99.90
2023-06-29T22:09:23.479Z,99.90
2023-06-29T22:14:26.288Z,99.90
2023-06-29T22:19:29.658Z,99.90
2023-06-29T22:24:32.278Z,99.90
2023-06-29T22:39:43.806Z,99.90
2023-06-29T22:44:46.431Z,99.90
2023-06-29T22:49:50.922Z,99.90
2023-06-29T22:54:53.974Z,99.90
2023-06-29T22:59:56.766Z,99.90
2023-06-29T23:04:59.504Z,99.90
2023-06-29T23:20:14.561Z,99.90
2023-06-29T23:25:17.362Z,99.90
2023-06-29T23:35:24.178Z,99.90
2023-06-29T23:45:30.132Z,99.90
2023-06-29T23:50:33.629Z,99.90
2023-06-29T23:55:36.433Z,99.90
